createdAt,value
2023-03-29T00:02:19.490Z,63.09
2023-03-29T00:04:46.909Z,63.38
2023-03-29T00:07:14.142Z,63.72
2023-03-29T00:09:40.756Z,63.92
2023-03-29T00:12:07.345Z,63.55
2023-03-29T00:14:33.819Z,63.14
2023-03-29T00:17:00.464Z,63.29
2023-03-29T00:19:27.042Z,63.65
2023-03-29T00:21:53.565Z,63.60
2023-03-29T00:24:21.459Z,63.70
2023-03-29T00:26:48.410Z,63.45
2023-03-29T00:29:14.909Z,63.72
2023-03-29T00:31:41.464Z,63.59
2023-03-29T00:34:07.982Z,63.46
2023-03-29T00:36:34.532Z,63.33
2023-03-29T00:39:01.072Z,63.07
2023-03-29T00:41:27.655Z,63.41
2023-03-29T00:43:59.401Z,63.39
2023-03-29T00:46:27.233Z,63.58
2023-03-29T00:48:56.549Z,63.47
2023-03-29T00:51:25.467Z,63.49
2023-03-29T00:53:56.372Z,63.27
2023-03-29T00:56:29.961Z,63.49
2023-03-29T00:59:07.463Z,63.51
2023-03-29T01:01:42.002Z,63.12
2023-03-29T01:04:19.311Z,63.14
2023-03-29T01:06:59.637Z,63.50
2023-03-29T01:09:30.283Z,63.58
2023-03-29T01:11:59.473Z,63.37
2023-03-29T01:14:28.738Z,63.15
2023-03-29T01:16:55.497Z,62.93
2023-03-29T01:19:26.451Z,63.15
2023-03-29T01:22:06.453Z,63.29
2023-03-29T01:24:57.339Z,63.03
2023-03-29T01:27:51.628Z,63.18
2023-03-29T01:30:41.139Z,63.13
2023-03-29T01:33:14.913Z,63.11
2023-03-29T01:35:48.475Z,63.06
2023-03-29T01:38:19.443Z,62.40
2023-03-29T01:40:46.010Z,62.43
2023-03-29T01:43:12.426Z,62.78
2023-03-29T01:46:10.282Z,62.58
2023-03-29T01:48:56.641Z,62.45
2023-03-29T01:51:33.422Z,61.83
2023-03-29T01:54:22.471Z,62.16
2023-03-29T01:56:50.557Z,62.21
2023-03-29T01:59:20.325Z,62.13
2023-03-29T02:01:52.923Z,62.23
2023-03-29T02:04:29.907Z,62.37
2023-03-29T02:06:57.387Z,62.47
2023-03-29T02:09:24.074Z,62.55
2023-03-29T02:11:51.588Z,62.58
2023-03-29T02:14:18.098Z,62.27
2023-03-29T02:16:46.300Z,62.69
2023-03-29T02:19:13.674Z,62.95
2023-03-29T02:22:04.135Z,63.07
2023-03-29T02:24:32.642Z,63.36
2023-03-29T02:26:59.706Z,63.68
2023-03-29T02:29:26.398Z,63.80
2023-03-29T02:32:00.165Z,63.99
2023-03-29T02:34:30.568Z,64.35
2023-03-29T02:36:59.970Z,64.43
2023-03-29T02:39:28.217Z,64.46
2023-03-29T02:41:55.067Z,64.49
2023-03-29T02:44:25.841Z,64.68
2023-03-29T02:46:56.301Z,64.96
2023-03-29T02:49:23.651Z,64.91
2023-03-29T02:51:53.572Z,64.96
2023-03-29T02:54:23.140Z,65.42
2023-03-29T02:56:56.035Z,65.82
2023-03-29T02:59:22.727Z,65.72
2023-03-29T03:01:49.663Z,66.25
2023-03-29T03:04:18.496Z,66.63
2023-03-29T03:06:45.024Z,66.61
2023-03-29T03:09:11.874Z,66.89
2023-03-29T03:11:38.385Z,66.84
2023-03-29T03:14:05.773Z,66.76
2023-03-29T03:16:32.486Z,66.94
2023-03-29T03:18:59.173Z,67.40
2023-03-29T03:21:28.081Z,68.10
2023-03-29T03:23:55.706Z,68.72
2023-03-29T03:26:23.212Z,69.13
2023-03-29T03:28:49.760Z,69.32
2023-03-29T03:31:17.431Z,69.55
2023-03-29T03:33:44.756Z,69.87
2023-03-29T03:36:11.629Z,69.81
2023-03-29T03:38:38.602Z,70.27
2023-03-29T03:41:06.849Z,70.54
2023-03-29T03:43:34.225Z,70.86
2023-03-29T03:46:01.356Z,70.90
2023-03-29T03:48:28.493Z,70.74
2023-03-29T03:50:57.025Z,70.82
2023-03-29T03:53:24.396Z,70.67
2023-03-29T03:55:53.220Z,71.50
2023-03-29T03:58:19.843Z,71.80
2023-03-29T04:00:50.237Z,71.85
2023-03-29T04:03:17.784Z,71.95
2023-03-29T04:05:45.704Z,72.19
2023-03-29T04:08:13.060Z,72.45
2023-03-29T04:10:40.684Z,72.50
2023-03-29T04:13:07.758Z,72.80
2023-03-29T04:15:38.667Z,73.10
2023-03-29T04:18:07.323Z,73.45
2023-03-29T04:20:34.519Z,73.05
2023-03-29T04:23:01.139Z,73.74
2023-03-29T04:25:27.638Z,73.75
2023-03-29T04:27:54.146Z,74.17
2023-03-29T04:30:20.987Z,73.91
2023-03-29T04:32:47.696Z,74.13
2023-03-29T04:35:14.406Z,74.21
2023-03-29T04:37:41.968Z,74.25
2023-03-29T04:40:09.982Z,74.35
2023-03-29T04:42:37.442Z,74.67
2023-03-29T04:45:06.994Z,74.76
2023-03-29T04:47:36.497Z,74.56
2023-03-29T04:50:04.676Z,74.71
2023-03-29T04:52:33.322Z,74.75
2023-03-29T04:55:01.551Z,74.46
2023-03-29T04:57:29.193Z,74.61
2023-03-29T04:59:56.394Z,74.51
2023-03-29T05:02:23.929Z,74.46
2023-03-29T05:04:50.591Z,74.41
2023-03-29T05:07:18.190Z,74.18
2023-03-29T05:09:44.887Z,74.01
2023-03-29T05:12:11.649Z,74.01
2023-03-29T05:14:38.280Z,74.39
2023-03-29T05:17:05.287Z,74.17
2023-03-29T05:19:32.075Z,74.17
2023-03-29T05:21:59.111Z,74.06
2023-03-29T05:24:25.760Z,74.10
2023-03-29T05:26:52.531Z,74.20
2023-03-29T05:29:19.267Z,73.59
2023-03-29T05:31:47.089Z,73.57
2023-03-29T05:34:13.825Z,73.63
2023-03-29T05:36:40.397Z,73.44
2023-03-29T05:39:07.436Z,73.09
2023-03-29T05:41:34.507Z,72.88
2023-03-29T05:44:01.235Z,72.09
2023-03-29T05:46:27.815Z,71.96
2023-03-29T05:48:54.535Z,71.90
2023-03-29T05:51:24.409Z,71.52
2023-03-29T05:53:51.596Z,71.44
2023-03-29T05:56:19.021Z,71.20
2023-03-29T05:58:51.363Z,70.57
2023-03-29T06:01:18.890Z,69.89
2023-03-29T06:03:49.235Z,70.12
2023-03-29T06:06:16.671Z,69.26
2023-03-29T06:08:43.863Z,68.86
2023-03-29T06:11:12.131Z,68.33
2023-03-29T06:13:39.056Z,67.90
2023-03-29T06:16:06.642Z,67.55
2023-03-29T06:18:33.581Z,67.50
2023-03-29T06:21:03.597Z,67.14
2023-03-29T06:23:30.882Z,67.11
2023-03-29T06:25:58.089Z,67.15
2023-03-29T06:28:24.823Z,66.96
2023-03-29T06:30:53.440Z,66.28
2023-03-29T06:33:20.555Z,66.24
2023-03-29T06:35:48.551Z,66.12
2023-03-29T06:38:15.566Z,64.69
2023-03-29T06:40:44.527Z,64.36
2023-03-29T06:43:11.307Z,64.29
2023-03-29T06:45:38.721Z,64.30
2023-03-29T06:48:07.991Z,64.06
2023-03-29T06:50:35.481Z,64.55
2023-03-29T06:53:03.985Z,63.76
2023-03-29T06:55:31.617Z,63.26
2023-03-29T06:58:00.219Z,63.18
2023-03-29T07:00:28.435Z,63.87
2023-03-29T07:02:56.599Z,63.46
2023-03-29T07:05:24.035Z,62.99
2023-03-29T07:07:55.012Z,62.88
2023-03-29T07:10:32.383Z,63.05
2023-03-29T07:13:05.814Z,61.58
2023-03-29T07:15:33.267Z,59.84
2023-03-29T07:18:02.468Z,55.63
2023-03-29T07:20:29.865Z,47.87
2023-03-29T07:22:57.409Z,41.72
2023-03-29T07:25:25.297Z,40.12
2023-03-29T07:27:54.890Z,36.50
2023-03-29T07:30:24.276Z,35.48
2023-03-29T07:32:52.408Z,31.87
2023-03-29T07:35:19.214Z,32.27
2023-03-29T07:37:46.414Z,32.39
2023-03-29T07:40:24.844Z,31.86
2023-03-29T07:42:54.335Z,32.25
2023-03-29T07:45:26.542Z,31.71
2023-03-29T07:47:58.985Z,30.61
2023-03-29T07:50:26.854Z,31.30
2023-03-29T07:52:53.878Z,31.33
2023-03-29T07:55:22.233Z,31.10
2023-03-29T07:57:49.520Z,30.13
2023-03-29T08:00:17.078Z,28.94
2023-03-29T08:02:45.513Z,28.41
2023-03-29T08:05:13.702Z,28.46
2023-03-29T08:07:41.927Z,27.68
2023-03-29T08:10:10.794Z,27.82
2023-03-29T08:12:37.887Z,27.91
2023-03-29T08:15:08.485Z,27.38
2023-03-29T08:17:36.696Z,27.35
2023-03-29T08:20:08.085Z,27.49
2023-03-29T08:22:34.836Z,28.15
2023-03-29T08:25:03.237Z,27.30
2023-03-29T08:27:30.209Z,27.17
2023-03-29T08:29:56.938Z,29.44
2023-03-29T08:32:23.768Z,30.38
2023-03-29T08:34:50.449Z,32.32
2023-03-29T08:37:17.321Z,34.35
2023-03-29T08:39:43.946Z,35.45
2023-03-29T08:42:10.810Z,36.08
2023-03-29T08:44:49.240Z,35.69
2023-03-29T08:47:21.344Z,36.02
2023-03-29T08:49:51.075Z,37.20
2023-03-29T08:52:41.226Z,35.15
2023-03-29T08:55:18.139Z,34.08
2023-03-29T08:57:47.463Z,34.28
2023-03-29T09:00:34.242Z,33.96
2023-03-29T09:03:05.725Z,33.52
2023-03-29T09:05:39.196Z,33.24
2023-03-29T09:08:13.473Z,32.89
2023-03-29T09:10:47.537Z,32.60
2023-03-29T09:13:52.044Z,32.43
2023-03-29T09:16:53.945Z,31.18
2023-03-29T09:19:31.859Z,31.25
2023-03-29T09:22:16.635Z,30.23
2023-03-29T09:24:57.934Z,30.26
2023-03-29T09:27:27.820Z,30.24
2023-03-29T09:30:10.169Z,30.36
2023-03-29T09:32:45.125Z,29.53
2023-03-29T09:35:18.887Z,29.06
2023-03-29T09:37:46.984Z,28.43
2023-03-29T09:40:17.336Z,28.54
2023-03-29T09:42:45.543Z,27.94
2023-03-29T09:45:12.193Z,29.20
2023-03-29T09:47:44.849Z,29.34
2023-03-29T09:50:29.513Z,28.50
2023-03-29T09:52:57.337Z,28.09
2023-03-29T09:55:27.668Z,28.48
2023-03-29T09:57:56.135Z,28.65
2023-03-29T10:00:22.799Z,27.91
2023-03-29T10:02:57.816Z,28.62
2023-03-29T10:05:25.961Z,28.82
2023-03-29T10:07:55.458Z,28.69
2023-03-29T10:10:29.878Z,29.08
2023-03-29T10:13:04.413Z,28.31
2023-03-29T10:15:31.712Z,28.39
2023-03-29T10:18:05.924Z,28.46
2023-03-29T10:20:36.344Z,29.21
2023-03-29T10:23:06.791Z,28.61
2023-03-29T10:25:34.525Z,28.46
2023-03-29T10:28:11.376Z,29.08
2023-03-29T10:30:39.024Z,29.46
2023-03-29T10:33:07.756Z,29.78
2023-03-29T10:35:42.511Z,30.22
2023-03-29T10:38:14.969Z,30.31
2023-03-29T10:40:44.142Z,30.42
2023-03-29T10:43:20.091Z,31.15
2023-03-29T10:45:52.219Z,30.36
2023-03-29T10:48:19.460Z,31.61
2023-03-29T10:50:50.835Z,30.68
2023-03-29T10:53:34.734Z,30.97
2023-03-29T10:56:29.303Z,31.27
2023-03-29T10:59:14.834Z,31.25
2023-03-29T11:01:47.098Z,32.44
2023-03-29T11:04:40.032Z,31.89
2023-03-29T11:07:32.897Z,31.22
2023-03-29T11:10:19.312Z,30.47
2023-03-29T11:13:08.467Z,30.28
2023-03-29T11:15:53.867Z,30.12
2023-03-29T11:18:59.241Z,29.76
2023-03-29T11:21:44.850Z,29.82
2023-03-29T11:24:26.613Z,30.25
2023-03-29T11:27:25.792Z,29.12
2023-03-29T11:30:27.541Z,28.36
2023-03-29T11:33:13.882Z,28.53
2023-03-29T11:35:40.444Z,28.43
2023-03-29T11:38:25.418Z,28.63
2023-03-29T11:41:26.069Z,28.38
2023-03-29T11:43:57.614Z,28.29
2023-03-29T11:46:34.213Z,28.11
2023-03-29T11:49:34.333Z,27.99
2023-03-29T11:52:29.234Z,27.89
2023-03-29T11:54:59.770Z,27.29
2023-03-29T11:57:31.021Z,28.47
2023-03-29T12:00:27.740Z,28.51
2023-03-29T12:03:11.241Z,27.78
2023-03-29T12:05:44.717Z,27.69
2023-03-29T12:08:16.881Z,27.69
2023-03-29T12:10:53.708Z,27.99
2023-03-29T12:13:28.844Z,27.09
2023-03-29T12:16:08.340Z,27.19
2023-03-29T12:18:44.134Z,25.69
2023-03-29T12:21:14.454Z,25.87
2023-03-29T12:23:42.599Z,26.51
2023-03-29T12:26:12.262Z,26.81
2023-03-29T12:29:14.614Z,26.45
2023-03-29T12:31:47.400Z,26.21
2023-03-29T12:34:31.163Z,26.43
2023-03-29T12:37:12.781Z,26.61
2023-03-29T12:39:40.045Z,26.68
2023-03-29T12:42:23.431Z,25.41
2023-03-29T12:44:57.178Z,24.47
2023-03-29T12:47:26.906Z,25.40
2023-03-29T12:49:57.825Z,25.97
2023-03-29T12:52:32.354Z,25.58
2023-03-29T12:55:01.365Z,25.52
2023-03-29T12:58:03.170Z,24.47
2023-03-29T13:00:42.632Z,25.15
2023-03-29T13:04:00.616Z,23.94
2023-03-29T13:06:35.889Z,25.07
2023-03-29T13:09:46.610Z,25.12
2023-03-29T13:12:23.056Z,24.71
2023-03-29T13:15:00.734Z,23.92
2023-03-29T13:18:04.597Z,23.75
2023-03-29T13:20:43.592Z,24.89
2023-03-29T13:23:36.433Z,24.50
2023-03-29T13:26:27.097Z,24.38
2023-03-29T13:29:31.565Z,24.47
2023-03-29T13:32:37.336Z,24.76
2023-03-29T13:35:15.696Z,24.20
2023-03-29T13:38:05.383Z,24.50
2023-03-29T13:40:41.897Z,25.08
2023-03-29T13:43:11.935Z,24.74
2023-03-29T13:45:38.992Z,25.06
2023-03-29T13:48:33.749Z,24.06
2023-03-29T13:51:21.822Z,24.34
2023-03-29T13:54:00.784Z,24.31
2023-03-29T13:56:32.825Z,23.83
2023-03-29T13:59:21.036Z,23.85
2023-03-29T14:01:53.462Z,23.95
2023-03-29T14:04:56.246Z,24.46
2023-03-29T14:07:26.432Z,23.97
2023-03-29T14:09:53.957Z,24.71
2023-03-29T14:12:20.659Z,24.11
2023-03-29T14:14:58.369Z,24.26
2023-03-29T14:17:25.898Z,24.13
2023-03-29T14:19:53.573Z,24.28
2023-03-29T14:22:21.446Z,23.91
2023-03-29T14:24:52.784Z,23.36
2023-03-29T14:27:21.363Z,23.09
2023-03-29T14:29:49.755Z,23.75
2023-03-29T14:32:27.601Z,24.17
2023-03-29T14:34:54.274Z,23.83
2023-03-29T14:37:30.133Z,24.18
2023-03-29T14:39:58.560Z,24.11
2023-03-29T14:42:26.933Z,23.59
2023-03-29T14:44:58.866Z,24.12
2023-03-29T14:47:28.422Z,24.31
2023-03-29T14:49:58.833Z,23.99
2023-03-29T14:52:25.869Z,24.22
2023-03-29T14:54:56.580Z,24.27
2023-03-29T14:57:25.610Z,24.63
2023-03-29T14:59:55.817Z,24.84
2023-03-29T15:02:25.404Z,24.54
2023-03-29T15:05:07.746Z,25.04
2023-03-29T15:07:36.884Z,25.64
2023-03-29T15:10:06.297Z,25.81
2023-03-29T15:12:33.794Z,25.66
2023-03-29T15:15:01.493Z,24.84
2023-03-29T15:17:51.154Z,24.56
2023-03-29T15:20:26.501Z,25.58
2023-03-29T15:22:55.131Z,25.72
2023-03-29T15:25:22.111Z,25.61
2023-03-29T15:27:56.099Z,26.06
2023-03-29T15:30:34.478Z,25.58
2023-03-29T15:33:20.987Z,25.80
2023-03-29T15:35:50.567Z,25.63
2023-03-29T15:38:17.585Z,25.71
2023-03-29T15:40:44.250Z,25.40
2023-03-29T15:43:11.114Z,25.29
2023-03-29T15:45:37.873Z,25.32
2023-03-29T15:48:22.645Z,24.92
2023-03-29T15:50:49.672Z,25.38
2023-03-29T15:53:20.806Z,25.98
2023-03-29T15:55:50.882Z,25.79
2023-03-29T15:58:20.077Z,25.74
2023-03-29T16:00:51.347Z,26.00
2023-03-29T16:03:17.989Z,25.69
2023-03-29T16:05:45.971Z,26.13
2023-03-29T16:08:13.285Z,26.03
2023-03-29T16:10:41.265Z,26.42
2023-03-29T16:13:07.811Z,26.81
2023-03-29T16:15:36.798Z,27.20
2023-03-29T16:18:04.591Z,27.17
2023-03-29T16:20:31.130Z,27.63
2023-03-29T16:22:57.706Z,27.58
2023-03-29T16:25:25.672Z,27.65
2023-03-29T16:27:54.992Z,27.43
2023-03-29T16:30:21.681Z,27.23
2023-03-29T16:32:48.309Z,27.15
2023-03-29T16:35:42.037Z,27.24
2023-03-29T16:38:09.245Z,27.65
2023-03-29T16:40:36.685Z,28.57
2023-03-29T16:43:07.675Z,28.28
2023-03-29T16:45:34.259Z,28.21
2023-03-29T16:48:00.808Z,28.77
2023-03-29T16:50:27.531Z,28.41
2023-03-29T16:52:54.355Z,28.26
2023-03-29T16:55:21.123Z,28.50
2023-03-29T16:57:48.585Z,27.99
2023-03-29T17:00:16.499Z,28.30
2023-03-29T17:02:43.944Z,28.58
2023-03-29T17:05:12.369Z,27.91
2023-03-29T17:07:48.305Z,27.62
2023-03-29T17:10:15.585Z,27.78
2023-03-29T17:12:42.723Z,28.37
2023-03-29T17:15:09.654Z,28.43
2023-03-29T17:17:37.886Z,28.98
2023-03-29T17:20:08.536Z,28.63
2023-03-29T17:22:35.894Z,28.57
2023-03-29T17:25:04.470Z,28.91
2023-03-29T17:27:31.017Z,29.30
2023-03-29T17:29:57.486Z,29.10
2023-03-29T17:32:24.489Z,29.24
2023-03-29T17:34:51.935Z,29.25
2023-03-29T17:37:20.291Z,29.37
2023-03-29T17:39:47.180Z,29.62
2023-03-29T17:42:13.896Z,29.74
2023-03-29T17:44:40.516Z,29.80
2023-03-29T17:47:07.149Z,29.75
2023-03-29T17:49:35.653Z,29.99
2023-03-29T17:52:04.823Z,30.06
2023-03-29T17:54:31.373Z,30.13
2023-03-29T17:56:58.087Z,30.19
2023-03-29T17:59:25.274Z,30.37
2023-03-29T18:01:51.957Z,30.45
2023-03-29T18:04:18.546Z,30.73
2023-03-29T18:06:45.804Z,30.65
2023-03-29T18:09:12.931Z,30.42
2023-03-29T18:11:39.483Z,30.68
2023-03-29T18:14:06.075Z,30.79
2023-03-29T18:16:32.764Z,30.50
2023-03-29T18:18:59.334Z,30.68
2023-03-29T18:21:27.352Z,30.53
2023-03-29T18:23:56.655Z,30.65
2023-03-29T18:26:23.606Z,30.79
2023-03-29T18:28:50.993Z,30.52
2023-03-29T18:31:20.090Z,31.02
2023-03-29T18:33:47.632Z,30.89
2023-03-29T18:36:14.717Z,30.69
2023-03-29T18:38:43.218Z,30.46
2023-03-29T19:39:33.699Z,31.99
2023-03-29T19:42:18.845Z,32.15
2023-03-29T19:44:45.449Z,31.80
2023-03-29T19:47:12.369Z,32.25
2023-03-29T19:49:39.050Z,31.80
2023-03-29T19:52:06.496Z,31.92
2023-03-29T19:54:33.088Z,32.04
2023-03-29T19:57:00.127Z,32.10
2023-03-29T19:59:28.484Z,32.53
2023-03-29T20:01:56.893Z,32.16
2023-03-29T20:04:24.676Z,32.45
2023-03-29T20:06:51.914Z,32.01
2023-03-29T20:09:18.789Z,32.05
2023-03-29T20:11:46.780Z,31.78
2023-03-29T20:14:13.728Z,31.83
2023-03-29T20:16:40.488Z,32.00
2023-03-29T20:19:07.262Z,32.28
2023-03-29T20:21:34.207Z,32.46
2023-03-29T20:24:00.720Z,32.48
2023-03-29T20:26:28.210Z,32.33
2023-03-29T20:28:55.150Z,32.47
2023-03-29T20:31:21.774Z,32.79
2023-03-29T20:33:48.441Z,32.49
2023-03-29T20:36:18.509Z,32.86
2023-03-29T20:38:45.956Z,32.68
2023-03-29T20:41:13.892Z,32.60
2023-03-29T20:43:41.286Z,32.88
2023-03-29T20:46:14.683Z,33.33
2023-03-29T20:48:53.002Z,33.07
2023-03-29T20:51:21.525Z,33.24
2023-03-29T20:53:48.155Z,33.73
2023-03-29T20:56:14.985Z,33.33
2023-03-29T20:58:43.899Z,33.83
2023-03-29T21:01:14.194Z,33.96
2023-03-29T21:03:42.378Z,34.17
2023-03-29T21:06:09.500Z,34.12
2023-03-29T21:08:35.988Z,34.15
2023-03-29T21:11:03.269Z,34.03
2023-03-29T21:13:34.297Z,34.37
2023-03-29T21:16:02.945Z,34.67
2023-03-29T21:18:29.736Z,34.84
2023-03-29T21:20:56.523Z,34.88
2023-03-29T21:23:22.989Z,34.80
2023-03-29T21:25:49.667Z,34.88
2023-03-29T21:28:16.506Z,35.18
2023-03-29T21:30:42.979Z,35.20
2023-03-29T21:33:09.717Z,35.27
2023-03-29T21:35:36.385Z,35.52
2023-03-29T21:38:02.978Z,35.48
2023-03-29T21:40:29.476Z,35.95
2023-03-29T21:42:56.233Z,35.71
2023-03-29T21:45:22.869Z,35.89
2023-03-29T21:47:49.476Z,35.63
2023-03-29T21:50:16.507Z,35.88
2023-03-29T21:52:42.987Z,35.92
2023-03-29T21:55:09.624Z,35.93
2023-03-29T21:57:36.216Z,36.03
2023-03-29T22:00:05.249Z,36.42
2023-03-29T22:02:32.337Z,36.23
2023-03-29T22:04:59.013Z,36.08
2023-03-29T22:07:25.553Z,36.05
2023-03-29T22:09:52.279Z,36.50
2023-03-29T22:12:18.789Z,36.26
2023-03-29T22:14:45.290Z,36.57
2023-03-29T22:17:12.082Z,36.58
2023-03-29T22:19:39.634Z,36.92
2023-03-29T22:22:07.170Z,36.77
2023-03-29T22:24:33.735Z,36.69
2023-03-29T22:27:00.237Z,36.87
2023-03-29T22:29:26.777Z,37.05
2023-03-29T22:31:53.423Z,37.53
2023-03-29T22:34:19.992Z,37.25
2023-03-29T22:36:46.546Z,37.54
2023-03-29T22:39:13.479Z,37.58
2023-03-29T22:41:39.943Z,37.61
2023-03-29T22:44:06.448Z,37.58
2023-03-29T22:46:33.393Z,37.86
2023-03-29T22:49:00.256Z,37.87
2023-03-29T22:51:27.284Z,38.17
2023-03-29T22:53:53.967Z,38.11
2023-03-29T22:56:20.450Z,38.40
2023-03-29T22:58:46.956Z,38.52
2023-03-29T23:01:13.633Z,38.53
2023-03-29T23:03:40.489Z,38.67
2023-03-29T23:06:07.265Z,39.25
2023-03-29T23:08:34.205Z,38.68
2023-03-29T23:11:01.784Z,38.63
2023-03-29T23:13:29.412Z,39.04
2023-03-29T23:15:58.858Z,39.48
2023-03-29T23:18:27.780Z,39.32
2023-03-29T23:20:56.705Z,39.79
2023-03-29T23:23:24.375Z,39.79
2023-03-29T23:25:52.471Z,39.97
2023-03-29T23:28:21.947Z,40.17
2023-03-29T23:31:03.418Z,40.25
2023-03-29T23:33:35.280Z,40.55
2023-03-29T23:36:04.271Z,40.91
2023-03-29T23:38:31.922Z,40.85
2023-03-29T23:41:02.201Z,41.29
2023-03-29T23:43:33.605Z,41.20
2023-03-29T23:46:05.714Z,41.44
2023-03-29T23:48:32.775Z,41.73
2023-03-29T23:50:59.255Z,41.73
2023-03-29T23:53:28.459Z,42.08
2023-03-29T23:56:00.355Z,42.51
2023-03-29T23:58:30.953Z,42.64
